createdAt,value
2023-03-01T00:01:22.747Z,9.60
2023-03-01T00:03:50.405Z,8.33
2023-03-01T00:06:17.818Z,9.80
2023-03-01T00:08:45.061Z,9.23
2023-03-01T00:11:16.391Z,9.63
2023-03-01T00:13:44.432Z,10.10
2023-03-01T00:16:15.224Z,10.50
2023-03-01T00:18:42.408Z,9.50
2023-03-01T00:21:09.607Z,10.07
2023-03-01T00:23:37.628Z,12.00
2023-03-01T00:26:09.266Z,12.17
2023-03-01T00:28:36.453Z,10.97
2023-03-01T00:31:08.936Z,12.87
2023-03-01T00:33:35.887Z,9.50
2023-03-01T00:36:04.201Z,10.37
2023-03-01T00:38:32.088Z,12.83
2023-03-01T00:41:08.643Z,11.33
2023-03-01T00:43:37.879Z,10.70
2023-03-01T00:46:11.277Z,10.10
2023-03-01T00:48:38.678Z,11.13
2023-03-01T00:51:14.857Z,12.17
2023-03-01T00:53:42.305Z,12.90
2023-03-01T00:56:12.197Z,16.73
2023-03-01T00:58:39.328Z,12.17
2023-03-01T01:01:20.598Z,11.57
2023-03-01T01:04:00.256Z,12.33
2023-03-01T01:06:34.213Z,11.97
2023-03-01T01:09:13.824Z,14.27
2023-03-01T01:11:40.908Z,15.03
2023-03-01T01:14:07.891Z,13.63
2023-03-01T01:16:34.749Z,12.40
2023-03-01T01:19:01.706Z,12.33
2023-03-01T01:21:29.136Z,14.07
2023-03-01T01:23:57.623Z,16.83
2023-03-01T01:26:27.529Z,14.10
2023-03-01T01:28:55.604Z,10.77
2023-03-01T01:31:27.127Z,14.27
2023-03-01T01:33:55.017Z,13.23
2023-03-01T01:36:25.953Z,12.57
2023-03-01T01:38:53.004Z,11.17
2023-03-01T01:41:21.371Z,15.20
2023-03-01T01:44:09.604Z,14.30
2023-03-01T01:46:40.294Z,13.47
2023-03-01T01:49:26.536Z,12.33
2023-03-01T01:52:12.015Z,14.47
2023-03-01T01:54:53.523Z,13.47
2023-03-01T01:57:27.542Z,13.27
2023-03-01T01:59:59.908Z,15.40
2023-03-01T02:02:27.870Z,14.33
2023-03-01T02:05:05.056Z,12.77
2023-03-01T02:07:32.282Z,11.77
2023-03-01T02:09:59.979Z,10.80
2023-03-01T02:12:27.342Z,13.27
2023-03-01T02:14:57.120Z,11.20
2023-03-01T02:17:25.885Z,12.07
2023-03-01T02:20:25.394Z,12.73
2023-03-01T02:22:54.879Z,10.00
2023-03-01T02:25:48.114Z,11.10
2023-03-01T02:28:14.915Z,12.13
2023-03-01T02:31:05.355Z,13.17
2023-03-01T02:33:34.028Z,11.67
2023-03-01T02:36:08.161Z,12.20
2023-03-01T02:38:35.210Z,13.00
2023-03-01T02:41:04.876Z,13.57
2023-03-01T02:43:34.216Z,11.50
2023-03-01T02:46:08.478Z,14.77
2023-03-01T02:48:44.726Z,12.67
2023-03-01T02:51:28.990Z,11.90
2023-03-01T02:54:08.199Z,10.87
2023-03-01T02:56:36.032Z,10.20
2023-03-01T02:59:03.880Z,13.33
2023-03-01T03:05:24.593Z,11.93
2023-03-01T03:07:51.921Z,12.53
2023-03-01T03:10:25.750Z,13.10
2023-03-01T03:12:58.481Z,12.53
2023-03-01T03:15:27.211Z,13.33
2023-03-01T03:17:54.570Z,10.23
2023-03-01T03:20:25.780Z,10.87
2023-03-01T03:22:55.836Z,12.10
2023-03-01T03:25:23.601Z,10.53
2023-03-01T03:27:57.948Z,15.37
2023-03-01T03:30:31.559Z,12.30
2023-03-01T03:33:00.264Z,11.00
2023-03-01T03:35:34.036Z,11.70
2023-03-01T03:38:06.901Z,11.03
2023-03-01T03:40:35.473Z,11.80
2023-03-01T03:43:03.607Z,12.30
2023-03-01T03:45:30.618Z,13.80
2023-03-01T03:47:57.640Z,12.73
2023-03-01T03:50:24.684Z,14.07
2023-03-01T03:52:52.361Z,13.90
2023-03-01T03:55:20.509Z,13.90
2023-03-01T03:57:52.754Z,14.43
2023-03-01T04:00:22.253Z,11.37
2023-03-01T04:02:49.973Z,12.20
2023-03-01T04:05:19.122Z,12.93
2023-03-01T04:07:47.064Z,11.87
2023-03-01T04:10:19.222Z,11.27
2023-03-01T04:12:46.141Z,15.37
2023-03-01T04:15:16.282Z,10.77
2023-03-01T04:17:47.928Z,12.23
2023-03-01T04:20:26.161Z,12.33
2023-03-01T04:23:22.739Z,10.40
2023-03-01T04:25:56.609Z,12.37
2023-03-01T04:28:32.351Z,9.30
2023-03-01T04:30:59.965Z,13.47
2023-03-01T04:33:29.813Z,12.40
2023-03-01T04:35:59.489Z,12.10
2023-03-01T04:38:26.665Z,12.70
2023-03-01T04:40:53.425Z,12.63
2023-03-01T04:43:20.375Z,14.23
2023-03-01T04:45:47.344Z,12.20
2023-03-01T04:48:14.136Z,9.83
2023-03-01T04:50:44.078Z,12.67
2023-03-01T04:53:11.150Z,12.07
2023-03-01T04:55:38.171Z,12.83
2023-03-01T04:58:05.053Z,11.50
2023-03-01T05:00:32.188Z,14.47
2023-03-01T05:03:01.722Z,12.17
2023-03-01T05:05:32.521Z,11.77
2023-03-01T05:08:01.669Z,13.60
2023-03-01T05:10:34.055Z,12.53
2023-03-01T05:13:00.985Z,12.87
2023-03-01T05:15:29.892Z,10.47
2023-03-01T05:18:02.219Z,9.83
2023-03-01T05:20:31.180Z,10.87
2023-03-01T05:23:00.555Z,11.77
2023-03-01T05:25:34.271Z,11.40
2023-03-01T05:28:05.542Z,13.80
2023-03-01T05:30:34.574Z,12.13
2023-03-01T05:33:02.185Z,9.97
2023-03-01T05:35:30.780Z,8.63
2023-03-01T05:37:57.793Z,12.03
2023-03-01T05:40:25.423Z,13.53
2023-03-01T05:42:57.858Z,13.63
2023-03-01T05:45:26.916Z,11.30
2023-03-01T05:47:56.211Z,10.40
2023-03-01T05:50:28.581Z,9.83
2023-03-01T05:53:00.114Z,11.43
2023-03-01T05:55:29.155Z,12.33
2023-03-01T05:57:56.984Z,9.80
2023-03-01T06:00:23.916Z,8.40
2023-03-01T06:02:53.047Z,10.57
2023-03-01T06:05:19.879Z,10.50
2023-03-01T06:07:46.806Z,10.33
2023-03-01T06:10:14.829Z,12.17
2023-03-01T06:12:43.583Z,11.07
2023-03-01T06:15:13.524Z,11.97
2023-03-01T06:17:42.550Z,14.50
2023-03-01T06:20:15.772Z,10.63
2023-03-01T06:22:43.520Z,14.33
2023-03-01T06:25:12.100Z,14.73
2023-03-01T06:27:41.960Z,13.50
2023-03-01T06:30:13.388Z,13.50
2023-03-01T06:32:43.219Z,13.00
2023-03-01T06:35:14.821Z,12.43
2023-03-01T06:37:42.602Z,14.93
2023-03-01T06:40:12.843Z,14.53
2023-03-01T06:42:42.493Z,14.17
2023-03-01T06:45:10.354Z,16.57
2023-03-01T06:47:37.456Z,14.10
2023-03-01T06:50:05.501Z,14.03
2023-03-01T06:55:00.221Z,16.30
2023-03-01T06:57:27.507Z,13.93
2023-03-01T06:59:54.636Z,13.97
2023-03-01T07:02:21.843Z,12.20
2023-03-01T07:04:51.450Z,11.60
2023-03-01T07:07:19.434Z,14.13
2023-03-01T07:09:47.042Z,19.33
2023-03-01T07:12:14.088Z,14.83
2023-03-01T07:14:41.328Z,15.67
2023-03-01T07:17:09.782Z,17.53
2023-03-01T07:19:36.616Z,17.10
2023-03-01T07:22:05.630Z,16.37
2023-03-01T07:24:32.577Z,20.33
2023-03-01T07:26:59.393Z,19.87
2023-03-01T07:29:26.357Z,19.07
2023-03-01T07:31:53.364Z,19.43
2023-03-01T07:34:20.276Z,18.43
2023-03-01T07:36:47.226Z,19.50
2023-03-01T07:39:14.475Z,18.23
2023-03-01T07:41:41.305Z,18.60
2023-03-01T07:44:08.298Z,16.33
2023-03-01T07:46:35.189Z,17.37
2023-03-01T07:49:02.285Z,17.70
2023-03-01T07:51:29.066Z,16.50
2023-03-01T07:53:55.924Z,18.70
2023-03-01T07:56:23.256Z,15.30
2023-03-01T07:58:51.218Z,14.90
2023-03-01T08:01:21.580Z,14.17
2023-03-01T08:03:49.373Z,16.13
2023-03-01T08:06:17.828Z,14.47
2023-03-01T08:08:45.596Z,13.10
2023-03-01T08:11:15.667Z,13.73
2023-03-01T08:13:43.884Z,12.93
2023-03-01T08:16:16.348Z,13.10
2023-03-01T08:18:44.424Z,12.77
2023-03-01T08:21:13.872Z,13.57
2023-03-01T08:23:42.230Z,13.83
2023-03-01T08:26:21.057Z,13.83
2023-03-01T08:28:49.604Z,14.13
2023-03-01T08:31:16.550Z,12.80
2023-03-01T08:33:43.954Z,12.37
2023-03-01T08:36:11.211Z,12.17
2023-03-01T08:38:38.042Z,12.57
2023-03-01T08:41:05.454Z,11.20
2023-03-01T08:43:32.550Z,11.07
2023-03-01T08:45:59.402Z,10.53
2023-03-01T08:48:31.348Z,11.67
2023-03-01T08:50:59.395Z,11.63
2023-03-01T08:53:29.273Z,11.00
2023-03-01T08:55:56.159Z,11.10
2023-03-01T08:58:23.144Z,11.37
2023-03-01T09:00:50.183Z,13.63
2023-03-01T09:03:17.843Z,10.87
2023-03-01T09:05:47.145Z,10.37
2023-03-01T09:08:14.372Z,11.50
2023-03-01T09:10:41.445Z,12.33
2023-03-01T09:13:08.218Z,13.73
2023-03-01T09:15:35.335Z,13.57
2023-03-01T09:18:02.474Z,12.83
2023-03-01T09:20:30.760Z,11.90
2023-03-01T09:22:57.760Z,11.70
2023-03-01T09:25:25.074Z,11.93
2023-03-01T09:27:53.593Z,12.33
2023-03-01T09:30:21.492Z,17.37
2023-03-01T09:32:48.960Z,17.00
2023-03-01T09:35:17.218Z,10.70
2023-03-01T09:37:44.185Z,11.13
2023-03-01T09:40:17.827Z,13.23
2023-03-01T09:42:57.785Z,11.50
2023-03-01T09:45:35.138Z,13.80
2023-03-01T09:48:05.116Z,13.33
2023-03-01T09:50:42.321Z,11.70
2023-03-01T09:53:17.097Z,13.30
2023-03-01T09:55:47.580Z,11.73
2023-03-01T09:58:38.238Z,8.87
2023-03-01T10:01:34.044Z,13.63
2023-03-01T10:04:31.909Z,12.33
2023-03-01T10:07:11.150Z,11.90
2023-03-01T10:09:41.481Z,10.90
2023-03-01T10:12:25.692Z,12.13
2023-03-01T10:15:43.437Z,12.70
2023-03-01T10:18:41.081Z,14.43
2023-03-01T10:21:18.299Z,17.63
2023-03-01T10:23:45.654Z,12.27
2023-03-01T10:26:41.130Z,14.30
2023-03-01T10:29:10.250Z,16.37
2023-03-01T10:31:45.692Z,17.30
2023-03-01T10:34:28.199Z,14.87
2023-03-01T10:36:59.484Z,14.30
2023-03-01T10:39:27.957Z,13.93
2023-03-01T10:42:07.445Z,15.43
2023-03-01T10:44:49.032Z,15.37
2023-03-01T10:47:24.565Z,13.97
2023-03-01T10:50:04.412Z,14.37
2023-03-01T10:52:41.903Z,16.17
2023-03-01T10:55:18.125Z,17.30
2023-03-01T10:57:44.980Z,17.43
2023-03-01T11:00:20.546Z,16.70
2023-03-01T11:03:18.459Z,15.63
2023-03-01T11:06:14.422Z,12.77
2023-03-01T11:08:52.054Z,15.73
2023-03-01T11:11:21.854Z,15.07
2023-03-01T11:14:03.168Z,18.17
2023-03-01T11:16:41.162Z,15.00
2023-03-01T11:19:11.046Z,18.10
2023-03-01T11:21:48.689Z,14.17
2023-03-01T11:24:18.561Z,19.57
2023-03-01T11:27:09.102Z,19.40
2023-03-01T11:29:48.858Z,20.93
2023-03-01T11:32:17.103Z,27.40
2023-03-01T11:35:19.529Z,28.90
2023-03-01T11:38:11.915Z,28.20
2023-03-01T11:41:09.388Z,29.63
2023-03-01T11:43:55.165Z,33.00
2023-03-01T11:46:34.911Z,31.53
2023-03-01T11:49:36.324Z,34.40
2023-03-01T11:52:29.651Z,29.47
2023-03-01T11:55:11.152Z,36.00
2023-03-01T11:57:52.432Z,45.47
2023-03-01T12:00:38.218Z,44.53
2023-03-01T12:03:32.371Z,39.03
2023-03-01T12:06:29.618Z,46.43
2023-03-01T12:09:17.951Z,44.90
2023-03-01T12:12:11.759Z,45.27
2023-03-01T12:15:04.528Z,40.83
2023-03-01T12:18:00.938Z,37.27
2023-03-01T12:20:37.948Z,38.23
2023-03-01T12:23:19.626Z,37.80
2023-03-01T12:25:56.002Z,38.93
2023-03-01T12:28:50.511Z,38.17
2023-03-01T12:31:58.918Z,34.67
2023-03-01T12:34:48.426Z,36.03
2023-03-01T12:37:36.713Z,33.87
2023-03-01T12:40:42.671Z,31.73
2023-03-01T12:43:25.629Z,32.67
2023-03-01T12:46:08.500Z,31.83
2023-03-01T12:48:53.130Z,34.03
2023-03-01T12:51:25.642Z,30.67
2023-03-01T12:53:56.382Z,30.03
2023-03-01T12:56:26.072Z,33.03
2023-03-01T12:59:04.598Z,35.30
2023-03-01T13:01:53.393Z,33.73
2023-03-01T13:04:20.343Z,29.23
2023-03-01T13:06:59.384Z,29.67
2023-03-01T13:09:45.572Z,25.93
2023-03-01T13:12:44.286Z,26.23
2023-03-01T13:15:23.147Z,26.50
2023-03-01T13:17:52.672Z,24.83
2023-03-01T13:20:47.238Z,22.53
2023-03-01T13:23:22.909Z,20.47
2023-03-01T13:26:17.359Z,17.63
2023-03-01T13:28:57.914Z,19.43
2023-03-01T13:31:27.650Z,18.53
2023-03-01T13:34:02.088Z,19.20
2023-03-01T13:36:29.144Z,15.53
2023-03-01T13:38:59.975Z,16.20
2023-03-01T13:41:45.019Z,18.03
2023-03-01T13:44:29.936Z,17.00
2023-03-01T13:47:18.659Z,19.53
2023-03-01T13:49:51.389Z,18.90
2023-03-01T13:52:41.676Z,21.17
2023-03-01T13:55:20.404Z,17.53
2023-03-01T13:57:54.877Z,15.63
2023-03-01T14:00:41.449Z,20.97
2023-03-01T14:03:20.117Z,20.07
2023-03-01T14:06:19.080Z,25.27
2023-03-01T14:08:50.736Z,21.40
2023-03-01T14:11:55.958Z,18.57
2023-03-01T14:14:40.193Z,19.67
2023-03-01T14:17:34.583Z,22.77
2023-03-01T14:20:23.620Z,19.27
2023-03-01T14:22:55.275Z,21.77
2023-03-01T14:25:25.795Z,19.57
2023-03-01T14:28:17.651Z,19.10
2023-03-01T14:30:47.823Z,18.87
2023-03-01T14:33:25.442Z,21.73
2023-03-01T14:36:07.711Z,18.70
2023-03-01T14:38:44.106Z,17.60
2023-03-01T14:41:19.829Z,19.47
2023-03-01T14:44:02.457Z,20.73
2023-03-01T14:46:36.343Z,19.33
2023-03-01T14:49:13.521Z,19.30
2023-03-01T14:51:42.878Z,21.83
2023-03-01T14:54:27.977Z,22.87
2023-03-01T14:56:59.310Z,19.67
2023-03-01T14:59:26.606Z,23.63
2023-03-01T15:01:57.471Z,19.27
2023-03-01T15:04:28.485Z,23.20
2023-03-01T15:07:06.339Z,20.47
2023-03-01T15:09:37.691Z,21.73
2023-03-01T15:12:35.449Z,22.93
2023-03-01T15:15:04.689Z,23.17
2023-03-01T15:17:35.657Z,23.00
2023-03-01T15:20:05.689Z,27.37
2023-03-01T15:22:32.783Z,24.53
2023-03-01T15:25:00.280Z,26.17
2023-03-01T15:27:28.846Z,21.20
2023-03-01T15:30:00.584Z,24.80
2023-03-01T15:32:40.339Z,23.70
2023-03-01T15:35:49.245Z,26.33
2023-03-01T15:38:55.518Z,27.23
2023-03-01T15:41:33.764Z,27.40
2023-03-01T15:44:15.443Z,27.73
2023-03-01T15:46:48.444Z,25.00
2023-03-01T15:49:30.857Z,25.13
2023-03-01T15:51:58.182Z,26.97
2023-03-01T15:54:30.188Z,29.67
2023-03-01T15:56:57.372Z,26.93
2023-03-01T15:59:24.580Z,27.00
2023-03-01T16:01:54.534Z,30.70
2023-03-01T16:04:22.114Z,31.53
2023-03-01T16:06:55.456Z,31.17
2023-03-01T16:09:27.279Z,29.17
2023-03-01T16:11:55.221Z,31.50
2023-03-01T16:14:22.366Z,36.70
2023-03-01T16:16:54.960Z,37.00
2023-03-01T16:19:22.116Z,37.20
2023-03-01T16:21:50.548Z,37.27
2023-03-01T16:24:18.337Z,40.83
2023-03-01T16:26:47.734Z,39.87
2023-03-01T16:29:17.752Z,46.47
2023-03-01T16:31:44.808Z,51.83
2023-03-01T16:34:12.071Z,64.17
2023-03-01T16:36:39.997Z,46.93
2023-03-01T16:39:07.708Z,39.00
2023-03-01T16:41:34.669Z,40.43
2023-03-01T16:44:04.521Z,40.60
2023-03-01T16:46:31.430Z,36.37
2023-03-01T16:48:58.590Z,31.67
2023-03-01T16:51:26.172Z,34.37
2023-03-01T16:53:56.144Z,31.00
2023-03-01T16:56:23.026Z,29.23
2023-03-01T16:58:49.946Z,29.07
2023-03-01T17:01:21.661Z,26.70
2023-03-01T17:03:50.720Z,26.93
2023-03-01T17:06:21.756Z,31.30
2023-03-01T17:08:48.810Z,27.23
2023-03-01T17:11:19.670Z,25.13
2023-03-01T17:13:47.035Z,27.37
2023-03-01T17:16:17.511Z,25.07
2023-03-01T17:18:44.988Z,28.40
2023-03-01T17:21:12.767Z,23.87
2023-03-01T17:23:42.326Z,22.70
2023-03-01T17:26:09.656Z,21.87
2023-03-01T17:28:37.843Z,23.93
2023-03-01T17:31:07.051Z,22.70
2023-03-01T17:33:34.220Z,22.23
2023-03-01T17:36:05.722Z,23.53
2023-03-01T17:38:32.559Z,23.97
2023-03-01T17:41:01.858Z,21.00
2023-03-01T17:43:29.307Z,20.60
2023-03-01T17:45:57.496Z,23.87
2023-03-01T17:48:24.587Z,23.83
2023-03-01T17:50:51.526Z,23.93
2023-03-01T17:53:18.485Z,24.10
2023-03-01T17:55:45.521Z,21.40
2023-03-01T17:58:14.279Z,21.53
2023-03-01T18:00:41.462Z,19.00
2023-03-01T18:03:08.812Z,15.47
2023-03-01T18:05:38.153Z,16.60
2023-03-01T18:08:08.445Z,17.73
2023-03-01T18:10:36.872Z,15.67
2023-03-01T18:13:05.262Z,15.60
2023-03-01T18:15:33.597Z,16.20
2023-03-01T18:18:00.450Z,19.37
2023-03-01T18:20:28.152Z,18.60
2023-03-01T18:22:55.132Z,22.70
2023-03-01T18:25:22.295Z,19.23
2023-03-01T18:27:51.666Z,18.43
2023-03-01T18:30:19.209Z,20.47
2023-03-01T18:32:46.163Z,20.03
2023-03-01T18:35:13.221Z,20.70
2023-03-01T18:37:41.469Z,19.33
2023-03-01T18:40:13.157Z,19.27
2023-03-01T18:42:40.978Z,20.53
2023-03-01T18:45:08.418Z,20.30
2023-03-01T18:47:35.221Z,21.90
2023-03-01T18:50:02.400Z,21.40
2023-03-01T18:52:29.279Z,21.73
2023-03-01T18:54:56.770Z,22.53
2023-03-01T18:57:23.760Z,22.33
2023-03-01T18:59:50.503Z,23.10
2023-03-01T19:02:17.703Z,23.50
2023-03-01T19:04:44.550Z,25.77
2023-03-01T19:07:12.784Z,27.53
2023-03-01T19:09:40.408Z,33.07
2023-03-01T19:12:07.755Z,35.47
2023-03-01T19:14:35.384Z,41.67
2023-03-01T19:17:02.394Z,40.67
2023-03-01T19:19:32.289Z,65.80
2023-03-01T19:22:05.775Z,64.73
2023-03-01T19:24:33.234Z,61.83
2023-03-01T19:27:02.526Z,50.43
2023-03-01T19:29:29.951Z,135.50
2023-03-01T19:31:56.879Z,62.40
2023-03-01T19:34:25.764Z,128.73
2023-03-01T19:36:54.366Z,166.50
2023-03-01T19:39:26.587Z,137.00
2023-03-01T19:41:56.848Z,82.23
2023-03-01T19:44:25.539Z,120.50
2023-03-01T19:46:54.546Z,145.63
2023-03-01T19:49:21.803Z,55.07
2023-03-01T19:51:48.791Z,143.07
2023-03-01T19:54:20.412Z,48.60
2023-03-01T19:56:48.220Z,57.87
2023-03-01T19:59:15.866Z,49.20
2023-03-01T20:01:42.848Z,187.50
2023-03-01T20:04:13.558Z,104.57
2023-03-01T20:06:42.077Z,42.60
2023-03-01T20:09:21.942Z,83.63
2023-03-01T20:11:49.981Z,179.63
2023-03-01T20:14:17.131Z,86.13
2023-03-01T20:16:43.951Z,54.00
2023-03-01T20:19:11.237Z,122.63
2023-03-01T20:21:38.347Z,50.33
2023-03-01T20:24:05.634Z,94.87
2023-03-01T20:26:35.826Z,69.20
2023-03-01T20:29:12.784Z,71.37
2023-03-01T20:31:41.714Z,90.43
2023-03-01T20:34:08.913Z,237.17
2023-03-01T20:36:38.587Z,105.07
2023-03-01T20:39:05.617Z,136.07
2023-03-01T20:41:35.924Z,121.90
2023-03-01T20:44:04.767Z,91.70
2023-03-01T20:46:33.322Z,175.97
2023-03-01T20:49:00.768Z,138.30
2023-03-01T20:51:27.698Z,92.73
2023-03-01T20:53:54.902Z,223.17
2023-03-01T20:56:27.281Z,104.93
2023-03-01T20:58:58.608Z,121.73
2023-03-01T21:01:25.935Z,160.47
2023-03-01T21:03:53.108Z,80.17
2023-03-01T21:06:20.280Z,63.60
2023-03-01T21:08:47.158Z,199.03
2023-03-01T21:11:16.287Z,112.83
2023-03-01T21:13:45.040Z,137.83
2023-03-01T21:16:17.120Z,120.20
2023-03-01T21:18:44.391Z,145.80
2023-03-01T21:21:14.507Z,99.07
2023-03-01T21:23:42.673Z,82.20
2023-03-01T21:26:28.248Z,53.30
2023-03-01T21:29:03.449Z,73.33
2023-03-01T21:31:35.388Z,72.53
2023-03-01T21:34:06.329Z,70.87
2023-03-01T21:36:37.102Z,94.63
2023-03-01T21:39:07.189Z,176.40
2023-03-01T21:41:37.074Z,216.73
2023-03-01T21:44:06.464Z,81.20
2023-03-01T21:46:36.926Z,52.97
2023-03-01T21:49:05.231Z,134.20
2023-03-01T21:51:32.456Z,69.60
2023-03-01T21:54:03.317Z,170.37
2023-03-01T21:56:34.841Z,66.37
2023-03-01T21:59:02.296Z,57.17
2023-03-01T22:01:34.758Z,189.33
2023-03-01T22:04:03.485Z,61.93
2023-03-01T22:06:38.340Z,79.67
2023-03-01T22:09:09.159Z,64.20
2023-03-01T22:11:39.748Z,51.10
2023-03-01T22:14:07.264Z,73.37
2023-03-01T22:16:36.699Z,97.80
2023-03-01T22:19:05.014Z,85.77
2023-03-01T22:21:31.845Z,82.67
2023-03-01T22:23:59.180Z,43.53
2023-03-01T22:26:35.589Z,207.67
2023-03-01T22:29:05.915Z,90.07
2023-03-01T22:31:34.334Z,57.73
2023-03-01T22:34:06.753Z,138.43
2023-03-01T22:36:34.457Z,37.93
2023-03-01T22:39:02.299Z,48.73
2023-03-01T22:41:32.261Z,148.93
2023-03-01T22:43:59.269Z,142.13
2023-03-01T22:46:27.791Z,34.03
2023-03-01T22:48:56.928Z,115.03
2023-03-01T22:51:30.995Z,43.50
2023-03-01T22:53:58.309Z,35.83
2023-03-01T22:56:32.143Z,33.90
2023-03-01T22:59:02.472Z,194.90
2023-03-01T23:01:30.841Z,41.80
2023-03-01T23:03:58.571Z,58.17
2023-03-01T23:06:26.251Z,130.13
2023-03-01T23:08:57.553Z,64.10
2023-03-01T23:11:26.643Z,140.87
2023-03-01T23:13:54.941Z,323.07
2023-03-01T23:16:26.887Z,37.87
2023-03-01T23:18:59.386Z,43.07
2023-03-01T23:21:26.567Z,37.20
2023-03-01T23:23:56.252Z,46.47
2023-03-01T23:26:27.198Z,70.93
2023-03-01T23:28:55.767Z,84.50
2023-03-01T23:31:23.058Z,69.20
2023-03-01T23:33:50.108Z,66.20
2023-03-01T23:36:23.877Z,165.07
2023-03-01T23:38:54.244Z,55.23
2023-03-01T23:41:23.648Z,61.10
2023-03-01T23:43:54.124Z,48.67
2023-03-01T23:46:23.416Z,76.17
2023-03-01T23:48:50.693Z,55.40
2023-03-01T23:51:18.758Z,79.10
2023-03-01T23:53:54.706Z,117.07
2023-03-01T23:56:41.844Z,40.67
2023-03-01T23:59:20.564Z,38.77
